Relevés horaires Bierset (Belgique)


Relevés horaires à Bierset - Mercredi 27 Juin 2018
Heure UTC1 Température [°C] Vent [km/h] Hum. [%] Pres.4 [hPa] Visi. [Km] Nébu. [octa] Préc.5 [mm] Cond.
2m. Res. Ros. Dir.2 Vit. Moy. Raf.3
23:00 18.3 18.3 9.7 ENE 5.6 7.4 11.1 57 1022.8(0.5/3h) 30 1/8 -- --
22:00 17.8 17.8 9.5 NE 7.4 7.4 9.3 58 1022.5(0.5/3h) 30 1/8 -- --
21:00 19.2 19.2 8.9 NE 7.4 13.0 20.4 51 1022.4(0.5/3h) 30 1/8 -- --
20:00 20.8 20.8 8.1 NE 7.4 9.3 13.0 44 1022.1(0.6/3h) 30 2/8 -- --
19:00 22.6 22.6 9.4 NE 9.3 13.0 20.4 43 1021.7(0.3/3h) 30 2/8 -- --
18:00 23.7 23.7 10.4 NE 13.0 14.8 20.4 43 1021.6(-0.2/3h) 30 3/8 0/12h
--
17:00 24.2 24.2 9.9 NE 11.1 13.0 18.5 40 1021.2(-0.9/3h) 30 5/8 -- --
16:00 25.0 25.0 10.6 NE 7.4 11.1 16.7 40 1021.2(-1.4/3h) 30 5/8 -- --
15:00 25.1 25.1 9.5 NE 9.3 11.1 16.7 37 1021.7(-1.3/3h) 30 6/8 -- --
14:00 25.3 25.3 11.6 NE 9.3 9.3 14.8 42 1022(-1.5/3h) 30 5/8 -- --
13:00 24.4 24.4 11.1 NE 7.4 9.3 16.7 43 1022.7(-1.4/3h) 30 5/8 -- --
12:00 23.5 23.5 13.4 N 7.4 7.4 13.0 53 1023.1(-1.2/3h) 20 3/8 0/6h
--
11:00 22.2 22.2 13.0 N 5.6 7.4 13.0 56 1023.7(-1.0/3h) 17 1/8 -- --
10:00 20.9 20.9 13.3 N 5.6 7.4 11.1 62 1024.3(-0.4/3h) 20 0/8 -- --
09:00 19.2 19.2 13.5 NNE 5.6 5.6 9.3 70 1024.6(0.1/3h) 12 0/8 -- --
08:00 17.3 17.3 12.4 NNE 3.7 3.7 7.4 73 1025.1(0.2/3h) 10 0/8 -- --
07:00 15.7 15.7 12.3 N 3.7 3.7 7.4 80 1025.1(0.4/3h) 9 0/8 -- --
06:00 14.6 14.6 12.4 N 3.7 3.7 9.3 87 1024.9(0.3/3h) 6 0/8 0/12h
--
05:00 12.1 12.1 11.2 NNE 3.7 3.7 5.6 94 1025.3(0.4/3h) 6 0/8 -- --
04:00 11.8 11.8 10.9 N 1.9 3.7 9.3 94 1025.1(0.3/3h) 6 0/8 -- --
03:00 12.2 12.2 11.0 N 1.9 3.7 3.7 92 1024.8(0.1/3h) 7 3/8 -- --
02:00 12.1 12.1 11.0 N 1.9 3.7 3.7 93 1024.8(0.0/3h) 9 3/8 -- --
01:00 13.0 13.0 11.3 N 1.9 3.7 3.7 89 1024.7(-0.4/3h) 30 3/8 -- --
00:00 14.0 14.0 11.4 N 3.7 9.3 13.0 84 1024.6(-0.3/3h) 30 3/8 0/6h
0/24h
--

1 Coordinated Universal Time. Actuellement il est 01:00 locale et 23:00 UTC.

2 Le vent souffle depuis la direction indiquée vers la direction oposée.

3 Les rafales max. sont disponible 40 min après l'heure du relevé.

4 Pour les stations d'altitude (plus de 600m) le géopotentiel du niveau le plus proche de la pression obligatoire est indiqué.

5 Les stations disposant d'un diffuseur peuvent indiquer "trace". Cela signifie que des précipitations ont touchés le sol mais que la quantité est inférieure à 0.1 mm.

Récapitulatif de la journée
Température [°C] Vent [km/h] Ensoleillement4 [h] Precipitations totale5 [mm] Pression [Hpa]
Min1 Max.2 Moy.3 Max. Min Max.
11.5 25.8 7.7 20.4 0 h 0 min 0 1021.2 1025.3

1 Température minimale relevée entre 18:00 UTC la veille et 18:00 UTC le jour donné.

2 Température maximale relevée entre 06:00 UTC le jour donné et 06:00 UTC le lendemain.

3 Vent moyen de la journée basé sur les relevés horaires.

4 Ensoleillement en heures relevé entre 06:00 UTC la veille et 06:00 UTC le jour donné.

5 Précipitations totales tombées entre 06:00 UTC la jour donné et 06:00 UTC le lendemain.

Graphiques horaires